createdAt,value
2019-05-19T00:01:21.170Z,8.20
2019-05-19T00:03:52.447Z,8.20
2019-05-19T00:06:23.897Z,8.10
2019-05-19T00:08:54.326Z,8.20
2019-05-19T00:11:24.767Z,8.20
2019-05-19T00:13:56.778Z,8.20
2019-05-19T00:16:27.216Z,8.20
2019-05-19T00:18:57.629Z,8.20
2019-05-19T00:21:28.647Z,8.30
2019-05-19T00:24:02.041Z,8.30
2019-05-19T00:26:32.793Z,8.30
2019-05-19T00:29:03.264Z,8.30
2019-05-19T00:31:33.781Z,8.40
2019-05-19T00:34:04.284Z,8.40
2019-05-19T00:36:34.998Z,8.40
2019-05-19T00:39:06.571Z,8.30
2019-05-19T00:41:37.011Z,8.30
2019-05-19T00:44:12.303Z,8.40
2019-05-19T00:46:45.645Z,8.40
2019-05-19T00:49:16.019Z,8.40
2019-05-19T00:51:46.459Z,8.40
2019-05-19T00:54:16.912Z,8.30
2019-05-19T00:56:48.033Z,8.30
2019-05-19T00:59:18.817Z,8.40
2019-05-19T01:01:49.318Z,8.50
2019-05-19T01:04:19.970Z,8.50
2019-05-19T01:06:58.449Z,8.50
2019-05-19T01:09:30.496Z,8.50
2019-05-19T01:12:01.063Z,8.50
2019-05-19T01:14:31.442Z,8.50
2019-05-19T01:17:02.121Z,8.60
2019-05-19T01:19:32.817Z,8.60
2019-05-19T01:22:03.792Z,8.50
2019-05-19T01:24:35.447Z,8.50
2019-05-19T01:27:06.778Z,8.50
2019-05-19T01:29:39.114Z,8.50
2019-05-19T01:32:09.528Z,8.50
2019-05-19T01:34:39.988Z,8.50
2019-05-19T01:37:11.053Z,8.50
2019-05-19T01:39:41.535Z,8.50
2019-05-19T01:42:12.048Z,8.50
2019-05-19T01:44:42.492Z,8.50
2019-05-19T01:47:13.034Z,8.50
2019-05-19T01:49:43.533Z,8.50
2019-05-19T01:52:13.857Z,8.50
2019-05-19T01:54:44.317Z,8.50
2019-05-19T01:57:14.723Z,8.60
2019-05-19T01:59:45.482Z,8.60
2019-05-19T02:02:17.020Z,8.60
2019-05-19T02:04:47.773Z,8.60
2019-05-19T02:07:19.142Z,8.60
2019-05-19T02:09:49.608Z,8.50
2019-05-19T02:12:19.962Z,8.50
2019-05-19T02:14:50.335Z,8.50
2019-05-19T02:17:20.718Z,8.50
2019-05-19T02:19:51.045Z,8.50
2019-05-19T02:22:21.393Z,8.50
2019-05-19T02:24:53.336Z,8.50
2019-05-19T02:27:23.676Z,8.50
2019-05-19T02:29:57.357Z,8.50
2019-05-19T02:32:27.600Z,8.50
2019-05-19T02:34:57.966Z,8.50
2019-05-19T02:37:28.415Z,8.50
2019-05-19T02:39:58.844Z,8.50
2019-05-19T02:42:31.748Z,8.50
2019-05-19T02:45:03.749Z,8.50
2019-05-19T02:50:52.179Z,8.40
2019-05-19T02:53:22.528Z,8.40
2019-05-19T02:55:49.404Z,8.40
2019-05-19T02:58:20.336Z,8.40
2019-05-19T03:00:52.307Z,8.40
2019-05-19T03:03:22.754Z,8.40
2019-05-19T03:05:54.089Z,8.50
2019-05-19T03:08:24.461Z,8.50
2019-05-19T03:10:54.879Z,8.50
2019-05-19T03:13:25.279Z,8.40
2019-05-19T03:18:48.351Z,8.40
2019-05-19T03:21:18.704Z,8.40
2019-05-19T03:23:49.098Z,8.40
2019-05-19T03:26:19.468Z,8.40
2019-05-19T03:28:51.229Z,8.40
2019-05-19T03:31:46.594Z,8.40
2019-05-19T03:34:17.023Z,8.50
2019-05-19T03:36:47.417Z,8.50
2019-05-19T03:39:19.135Z,8.50
2019-05-19T03:41:49.538Z,8.50
2019-05-19T03:44:20.019Z,8.50
2019-05-19T03:46:50.504Z,8.40
2019-05-19T03:49:20.904Z,8.40
2019-05-19T03:51:51.807Z,8.50
2019-05-19T03:54:22.164Z,8.40
2019-05-19T03:56:59.488Z,8.30
2019-05-19T03:59:25.749Z,8.40
2019-05-19T04:01:56.165Z,8.40
2019-05-19T04:04:26.480Z,8.40
2019-05-19T04:06:56.872Z,8.40
2019-05-19T04:09:30.768Z,8.40
2019-05-19T04:11:56.839Z,8.40
2019-05-19T04:14:27.206Z,8.40
2019-05-19T04:16:57.545Z,8.40
2019-05-19T04:19:27.962Z,8.40
2019-05-19T04:21:58.343Z,8.40
2019-05-19T04:24:31.880Z,8.50
2019-05-19T04:26:58.078Z,8.50
2019-05-19T04:29:31.664Z,8.50
2019-05-19T04:32:02.275Z,8.50
2019-05-19T04:34:32.598Z,8.50
2019-05-19T04:37:03.029Z,8.50
2019-05-19T04:39:33.409Z,8.50
2019-05-19T04:42:04.014Z,8.50
2019-05-19T04:44:34.402Z,8.50
2019-05-19T04:47:04.855Z,8.50
2019-05-19T04:49:35.633Z,8.50
2019-05-19T04:52:07.423Z,8.50
2019-05-19T04:54:38.576Z,8.50
2019-05-19T04:57:08.995Z,8.60
2019-05-19T04:59:39.451Z,8.60
2019-05-19T05:02:09.902Z,8.60
2019-05-19T05:04:40.325Z,8.60
2019-05-19T05:07:10.913Z,8.70
2019-05-19T05:09:41.383Z,8.70
2019-05-19T05:12:11.740Z,8.70
2019-05-19T05:14:42.184Z,8.70
2019-05-19T05:17:18.758Z,8.70
2019-05-19T05:19:48.390Z,8.70
2019-05-19T05:22:22.164Z,8.70
2019-05-19T05:24:52.599Z,8.70
2019-05-19T05:27:23.055Z,8.70
2019-05-19T05:29:53.681Z,8.80
2019-05-19T05:32:24.997Z,8.80
2019-05-19T05:34:55.493Z,8.80
2019-05-19T05:37:25.814Z,8.80
2019-05-19T05:40:00.745Z,8.70
2019-05-19T05:42:26.884Z,8.80
2019-05-19T05:44:57.324Z,8.80
2019-05-19T05:47:27.654Z,8.80
2019-05-19T05:49:58.232Z,8.80
2019-05-19T05:52:38.134Z,8.90
2019-05-19T05:55:00.709Z,9.00
2019-05-19T05:57:31.543Z,9.10
2019-05-19T06:00:02.000Z,9.20
2019-05-19T06:02:32.510Z,9.20
2019-05-19T06:05:02.955Z,9.30
2019-05-19T06:07:33.451Z,9.30
2019-05-19T06:10:11.253Z,9.40
2019-05-19T06:12:41.859Z,9.40
2019-05-19T06:15:12.342Z,9.40
2019-05-19T06:17:42.767Z,9.50
2019-05-19T06:20:13.298Z,9.60
2019-05-19T06:22:55.741Z,9.60
2019-05-19T06:25:15.990Z,9.70
2019-05-19T06:27:49.611Z,9.70
2019-05-19T06:30:16.707Z,9.70
2019-05-19T06:32:50.351Z,9.70
2019-05-19T06:35:20.877Z,9.70
2019-05-19T06:37:51.340Z,9.90
2019-05-19T06:40:22.265Z,10.00
2019-05-19T06:42:52.642Z,10.20
2019-05-19T06:45:23.171Z,10.30
2019-05-19T06:47:53.786Z,10.40
2019-05-19T06:50:24.224Z,10.50
2019-05-19T06:53:12.359Z,10.50
2019-05-19T06:55:31.885Z,10.60
2019-05-19T06:58:03.333Z,10.50
2019-05-19T07:00:33.792Z,10.60
2019-05-19T07:03:11.950Z,10.50
2019-05-19T07:05:43.675Z,10.50
2019-05-19T07:08:15.708Z,10.50
2019-05-19T07:10:46.123Z,10.60
2019-05-19T07:13:20.390Z,10.70
2019-05-19T07:15:52.428Z,10.80
2019-05-19T07:18:22.889Z,10.90
2019-05-19T07:21:03.238Z,11.00
2019-05-19T07:23:35.650Z,11.00
2019-05-19T07:26:06.144Z,11.20
2019-05-19T07:28:40.038Z,11.30
2019-05-19T07:31:06.009Z,11.40
2019-05-19T07:33:39.940Z,11.60
2019-05-19T07:36:05.872Z,11.70
2019-05-19T07:38:36.313Z,11.90
2019-05-19T07:41:06.890Z,12.10
2019-05-19T07:43:40.634Z,12.40
2019-05-19T07:46:06.857Z,12.50
2019-05-19T07:48:37.335Z,12.40
2019-05-19T07:51:11.303Z,12.30
2019-05-19T07:53:43.156Z,12.20
2019-05-19T07:56:12.537Z,12.20
2019-05-19T07:58:39.134Z,12.40
2019-05-19T08:04:18.901Z,12.20
2019-05-19T08:06:49.313Z,12.10
2019-05-19T08:09:19.740Z,12.10
2019-05-19T08:11:50.247Z,12.10
2019-05-19T08:14:20.621Z,12.10
2019-05-19T08:16:51.243Z,12.10
2019-05-19T08:19:21.733Z,12.20
2019-05-19T08:21:52.210Z,12.40
2019-05-19T08:24:22.956Z,12.40
2019-05-19T08:26:53.440Z,12.40
2019-05-19T08:29:27.021Z,12.30
2019-05-19T08:31:57.091Z,12.50
2019-05-19T08:34:27.555Z,12.90
2019-05-19T08:36:58.968Z,13.00
2019-05-19T08:39:29.497Z,13.20
2019-05-19T08:42:53.913Z,13.30
2019-05-19T08:45:24.773Z,13.30
2019-05-19T08:50:46.728Z,13.10
2019-05-19T08:53:17.243Z,13.00
2019-05-19T08:55:47.825Z,12.90
2019-05-19T08:58:18.302Z,12.80
2019-05-19T09:01:00.339Z,12.70
2019-05-19T09:03:31.025Z,12.80
2019-05-19T09:06:01.526Z,12.80
2019-05-19T09:08:32.004Z,12.80
2019-05-19T09:11:02.494Z,12.90
2019-05-19T09:20:01.339Z,12.90
2019-05-19T09:22:31.820Z,12.90
2019-05-19T09:25:02.392Z,13.00
2019-05-19T09:27:36.525Z,12.90
2019-05-19T09:30:02.423Z,12.80
2019-05-19T09:32:32.984Z,12.80
2019-05-19T09:35:03.406Z,12.80
2019-05-19T09:37:33.864Z,12.60
2019-05-19T09:40:08.674Z,12.60
2019-05-19T09:42:38.851Z,12.40
2019-05-19T09:45:09.885Z,12.30
2019-05-19T09:47:40.338Z,12.20
2019-05-19T09:50:11.361Z,12.10
2019-05-19T09:52:43.303Z,12.00
2019-05-19T09:55:14.198Z,11.90
2019-05-19T09:57:44.616Z,11.80
2019-05-19T10:00:15.172Z,11.80
2019-05-19T10:02:48.991Z,11.70
2019-05-19T10:05:20.654Z,11.70
2019-05-19T10:07:54.460Z,11.50
2019-05-19T10:10:33.105Z,11.60
2019-05-19T10:13:03.674Z,11.40
2019-05-19T10:15:34.308Z,11.50
2019-05-19T10:18:04.672Z,11.40
2019-05-19T10:20:35.261Z,11.40
2019-05-19T10:23:05.604Z,11.60
2019-05-19T10:25:35.964Z,11.60
2019-05-19T10:28:06.369Z,11.70
2019-05-19T10:30:39.865Z,11.80
2019-05-19T10:33:06.291Z,11.80
2019-05-19T10:35:37.168Z,12.00
2019-05-19T10:38:07.694Z,12.20
2019-05-19T10:40:38.288Z,12.40
2019-05-19T10:43:10.010Z,12.50
2019-05-19T10:45:40.461Z,12.50
2019-05-19T10:48:11.449Z,12.50
2019-05-19T10:50:41.905Z,12.70
2019-05-19T10:53:12.316Z,12.70
2019-05-19T10:55:43.320Z,12.80
2019-05-19T10:58:13.764Z,12.80
2019-05-19T11:00:44.199Z,12.80
2019-05-19T11:03:14.662Z,12.70
2019-05-19T11:05:45.037Z,12.50
2019-05-19T11:08:15.425Z,12.40
2019-05-19T11:10:45.830Z,12.40
2019-05-19T11:13:16.271Z,12.50
2019-05-19T11:15:46.766Z,12.50
2019-05-19T11:18:18.031Z,12.70
2019-05-19T11:20:48.460Z,12.90
2019-05-19T11:23:18.905Z,13.00
2019-05-19T11:25:51.739Z,13.10
2019-05-19T11:28:21.502Z,13.20
2019-05-19T11:30:52.176Z,13.30
2019-05-19T11:33:22.576Z,13.20
2019-05-19T11:35:52.948Z,13.10
2019-05-19T11:38:23.286Z,13.20
2019-05-19T11:40:53.798Z,13.40
2019-05-19T11:43:24.484Z,13.50
2019-05-19T11:45:56.115Z,13.60
2019-05-19T11:48:26.546Z,13.90
2019-05-19T11:50:56.924Z,13.70
2019-05-19T11:53:27.361Z,13.50
2019-05-19T11:56:06.218Z,13.20
2019-05-19T11:58:30.220Z,12.90
2019-05-19T12:01:00.666Z,12.70
2019-05-19T12:03:31.152Z,13.00
2019-05-19T12:06:01.582Z,13.20
2019-05-19T12:08:32.091Z,13.50
2019-05-19T12:11:02.801Z,13.70
2019-05-19T12:13:35.058Z,13.50
2019-05-19T12:16:05.464Z,13.80
2019-05-19T12:18:35.886Z,13.50
2019-05-19T12:21:06.346Z,13.10
2019-05-19T12:23:36.857Z,13.10
2019-05-19T12:26:22.269Z,13.20
2019-05-19T12:28:39.254Z,13.30
2019-05-19T12:31:13.031Z,13.40
2019-05-19T12:33:51.018Z,13.40
2019-05-19T12:36:11.250Z,13.40
2019-05-19T12:38:41.717Z,13.30
2019-05-19T12:41:29.335Z,13.30
2019-05-19T12:43:41.814Z,13.30
2019-05-19T12:46:16.305Z,13.20
2019-05-19T12:48:44.567Z,13.00
2019-05-19T12:51:14.955Z,12.90
2019-05-19T12:53:46.320Z,12.90
2019-05-19T12:56:16.765Z,13.00
2019-05-19T12:58:47.175Z,12.90
2019-05-19T13:01:17.524Z,12.90
2019-05-19T13:03:47.995Z,13.00
2019-05-19T13:06:18.436Z,13.10
2019-05-19T13:08:48.881Z,13.20
2019-05-19T13:11:19.381Z,13.30
2019-05-19T13:13:50.755Z,13.30
2019-05-19T13:16:21.339Z,13.50
2019-05-19T13:18:54.366Z,13.60
2019-05-19T13:21:28.598Z,13.70
2019-05-19T13:23:55.900Z,13.60
2019-05-19T13:26:26.491Z,13.60
2019-05-19T13:28:58.010Z,13.50
2019-05-19T13:31:31.797Z,13.50
2019-05-19T13:33:57.930Z,13.60
2019-05-19T13:36:32.155Z,13.50
2019-05-19T13:38:57.856Z,13.60
2019-05-19T13:41:28.325Z,13.70
2019-05-19T13:43:59.735Z,13.60
2019-05-19T13:46:30.406Z,13.70
2019-05-19T13:49:00.757Z,13.80
2019-05-19T13:51:31.171Z,13.90
2019-05-19T13:54:01.631Z,13.80
2019-05-19T13:56:32.217Z,13.90
2019-05-19T13:59:02.526Z,13.90
2019-05-19T14:01:32.953Z,13.90
2019-05-19T14:04:03.287Z,13.90
2019-05-19T14:06:37.529Z,14.10
2019-05-19T14:09:09.695Z,14.20
2019-05-19T14:11:40.321Z,14.40
2019-05-19T14:14:14.254Z,14.40
2019-05-19T14:16:44.997Z,14.50
2019-05-19T14:19:15.455Z,14.50
2019-05-19T14:21:45.876Z,14.60
2019-05-19T14:24:16.220Z,14.50
2019-05-19T14:45:34.926Z,14.60
2019-05-19T14:48:01.393Z,15.00
2019-05-19T14:59:39.199Z,15.60
2019-05-19T15:02:09.610Z,15.70
2019-05-19T15:04:40.050Z,15.30
2019-05-19T15:07:10.554Z,15.40
2019-05-19T15:09:41.061Z,15.30
2019-05-19T15:12:11.494Z,15.30
2019-05-19T15:14:42.022Z,15.20
2019-05-19T15:17:12.481Z,15.30
2019-05-19T15:19:43.965Z,15.50
2019-05-19T15:22:15.901Z,15.70
2019-05-19T15:24:46.682Z,15.80
2019-05-19T15:27:17.094Z,15.80
2019-05-19T15:29:47.622Z,16.00
2019-05-19T15:32:18.063Z,16.10
2019-05-19T15:38:14.577Z,15.90
2019-05-19T15:40:45.001Z,16.00
2019-05-19T15:43:15.512Z,15.80
2019-05-19T15:45:46.027Z,15.60
2019-05-19T15:48:16.446Z,15.20
2019-05-19T15:50:47.012Z,15.30
2019-05-19T15:53:17.198Z,15.10
2019-05-19T15:55:48.428Z,15.20
2019-05-19T15:58:18.893Z,15.30
2019-05-19T16:00:52.416Z,15.30
2019-05-19T16:03:18.722Z,15.40
2019-05-19T16:05:49.260Z,15.30
2019-05-19T16:08:19.785Z,15.60
2019-05-19T16:10:50.285Z,15.80
2019-05-19T16:13:22.052Z,15.70
2019-05-19T16:15:52.852Z,15.30
2019-05-19T16:18:23.293Z,15.40
2019-05-19T16:20:53.725Z,15.40
2019-05-19T16:23:24.116Z,15.20
2019-05-19T16:25:56.031Z,15.10
2019-05-19T16:28:33.482Z,15.00
2019-05-19T16:31:04.068Z,15.40
2019-05-19T16:33:34.655Z,15.50
2019-05-19T16:36:07.882Z,15.60
2019-05-19T16:38:37.427Z,15.40
2019-05-19T16:41:07.920Z,15.70
2019-05-19T16:43:38.410Z,15.80
2019-05-19T16:46:08.933Z,15.60
2019-05-19T16:48:39.317Z,15.30
2019-05-19T16:51:10.293Z,15.10
2019-05-19T16:53:41.306Z,15.30
2019-05-19T16:56:11.871Z,15.30
2019-05-19T16:58:45.389Z,15.30
2019-05-19T17:01:14.534Z,15.30
2019-05-19T17:03:45.024Z,15.20
2019-05-19T17:06:15.446Z,15.10
2019-05-19T17:09:04.505Z,14.90
2019-05-19T17:11:35.332Z,14.80
2019-05-19T17:14:05.812Z,14.60
2019-05-19T17:16:36.244Z,14.40
2019-05-19T17:19:06.659Z,14.30
2019-05-19T17:21:37.042Z,14.10
2019-05-19T17:24:07.748Z,14.00
2019-05-19T17:26:38.276Z,14.00
2019-05-19T17:29:11.848Z,13.70
2019-05-19T17:31:42.653Z,13.60
2019-05-19T17:34:13.119Z,13.70
2019-05-19T17:36:43.484Z,13.60
2019-05-19T17:39:13.968Z,13.60
2019-05-19T17:41:44.493Z,13.60
2019-05-19T17:44:18.589Z,13.60
2019-05-19T17:46:44.541Z,13.60
2019-05-19T17:49:14.991Z,13.50
2019-05-19T17:51:45.452Z,13.50
2019-05-19T17:54:15.841Z,13.40
2019-05-19T17:56:48.379Z,13.40
2019-05-19T17:59:19.119Z,13.40
2019-05-19T18:01:49.618Z,13.30
2019-05-19T18:04:20.013Z,13.20
2019-05-19T18:06:50.423Z,13.10
2019-05-19T18:09:20.884Z,13.00
2019-05-19T18:11:51.445Z,12.90
2019-05-19T18:14:22.004Z,12.80
2019-05-19T18:16:52.449Z,12.70
2019-05-19T18:19:22.892Z,12.60
2019-05-19T18:22:00.933Z,12.60
2019-05-19T18:24:31.790Z,12.50
2019-05-19T18:27:02.343Z,12.30
2019-05-19T18:29:32.862Z,12.30
2019-05-19T18:32:03.832Z,12.30
2019-05-19T18:34:34.242Z,12.20
2019-05-19T18:37:04.729Z,12.20
2019-05-19T18:39:35.473Z,12.20
2019-05-19T18:42:05.972Z,12.20
2019-05-19T18:44:36.403Z,12.10
2019-05-19T18:47:06.771Z,12.00
2019-05-19T18:49:37.248Z,12.00
2019-05-19T18:52:07.681Z,11.80
2019-05-19T18:54:38.189Z,11.40
2019-05-19T18:57:08.693Z,10.90
2019-05-19T18:59:46.935Z,10.90
2019-05-19T19:02:11.676Z,10.80
2019-05-19T19:04:42.035Z,10.80
2019-05-19T19:07:12.523Z,10.60
2019-05-19T19:09:43.020Z,10.50
2019-05-19T19:12:13.511Z,10.50
2019-05-19T19:14:43.956Z,10.40
2019-05-19T19:17:14.528Z,10.40
2019-05-19T19:19:45.089Z,10.30
2019-05-19T19:22:15.611Z,10.20
2019-05-19T19:24:47.017Z,10.10
2019-05-19T19:27:17.497Z,10.20
2019-05-19T19:30:02.374Z,10.10
2019-05-19T19:32:20.102Z,10.10
2019-05-19T19:34:53.927Z,10.10
2019-05-19T19:37:24.510Z,10.10
2019-05-19T19:39:54.967Z,10.10
2019-05-19T19:42:25.388Z,10.10
2019-05-19T19:44:57.281Z,10.10
2019-05-19T19:47:27.822Z,10.10
2019-05-19T19:50:00.825Z,10.10
2019-05-19T19:52:31.663Z,10.10
2019-05-19T19:55:04.158Z,10.20
2019-05-19T19:57:37.311Z,10.20
2019-05-19T20:00:17.951Z,10.20
2019-05-19T20:02:41.619Z,10.20
2019-05-19T20:05:13.251Z,10.10
2019-05-19T20:07:43.736Z,10.10
2019-05-19T20:10:14.102Z,10.10
2019-05-19T20:12:44.571Z,10.00
2019-05-19T20:15:16.428Z,10.00
2019-05-19T20:17:46.867Z,10.00
2019-05-19T20:20:17.491Z,10.00
2019-05-19T20:22:47.983Z,10.10
2019-05-19T20:25:18.441Z,10.10
2019-05-19T20:27:48.920Z,10.10
2019-05-19T20:30:34.210Z,10.00
2019-05-19T20:32:52.551Z,10.00
2019-05-19T20:35:22.884Z,9.90
2019-05-19T20:37:53.241Z,9.90
2019-05-19T20:40:23.638Z,9.70
2019-05-19T20:42:57.688Z,9.70
2019-05-19T20:45:28.862Z,9.60
2019-05-19T20:48:02.059Z,9.60
2019-05-19T20:50:32.490Z,9.60
2019-05-19T20:53:02.948Z,9.60
2019-05-19T20:55:33.425Z,9.70
2019-05-19T20:58:03.997Z,9.70
2019-05-19T21:00:48.101Z,9.80
2019-05-19T21:03:06.631Z,9.80
2019-05-19T21:05:37.049Z,9.80
2019-05-19T21:08:07.517Z,9.80
2019-05-19T21:10:38.223Z,9.80
2019-05-19T21:13:08.903Z,9.80
2019-05-19T21:15:39.379Z,9.80
2019-05-19T21:18:09.795Z,9.70
2019-05-19T21:20:40.156Z,9.70
2019-05-19T21:23:11.749Z,9.70
2019-05-19T21:25:42.149Z,9.80
2019-05-19T21:28:12.588Z,9.70
2019-05-19T21:30:43.001Z,9.70
2019-05-19T21:33:13.428Z,9.80
2019-05-19T21:35:43.871Z,9.70
2019-05-19T21:38:14.216Z,9.60
2019-05-19T21:40:47.696Z,9.60
2019-05-19T21:43:18.669Z,9.70
2019-05-19T21:45:49.208Z,9.60
2019-05-19T21:48:31.172Z,9.60
2019-05-19T21:51:01.638Z,9.50
2019-05-19T21:53:32.027Z,9.50
2019-05-19T21:56:02.598Z,9.50
2019-05-19T21:58:32.962Z,9.50
2019-05-19T22:01:03.620Z,9.50
2019-05-19T22:03:34.173Z,9.50
2019-05-19T22:06:04.577Z,9.50
2019-05-19T22:08:34.984Z,9.50
2019-05-19T22:11:05.326Z,9.50
2019-05-19T22:13:35.776Z,9.50
2019-05-19T22:16:12.988Z,9.50
2019-05-19T22:18:38.232Z,9.50
2019-05-19T22:21:08.618Z,9.50
2019-05-19T22:23:39.054Z,9.50
2019-05-19T22:26:09.455Z,9.50
2019-05-19T22:28:39.891Z,9.50
2019-05-19T22:31:10.328Z,9.50
2019-05-19T22:33:40.847Z,9.40
2019-05-19T22:36:11.407Z,9.40
2019-05-19T22:38:41.766Z,9.40
2019-05-19T22:41:12.228Z,9.40
2019-05-19T22:43:43.726Z,9.50
2019-05-19T22:46:14.066Z,9.50
2019-05-19T22:48:44.448Z,9.50
2019-05-19T22:51:15.784Z,9.40
2019-05-19T22:53:46.215Z,9.40
2019-05-19T22:56:16.615Z,9.40
2019-05-19T22:58:47.109Z,9.40
2019-05-19T23:01:17.572Z,9.30
2019-05-19T23:03:48.009Z,9.30
2019-05-19T23:06:18.445Z,9.30
2019-05-19T23:08:48.858Z,9.30
2019-05-19T23:11:22.664Z,9.30
2019-05-19T23:13:53.368Z,9.30
2019-05-19T23:16:23.728Z,9.30
2019-05-19T23:18:54.143Z,9.30
2019-05-19T23:21:24.434Z,9.30
2019-05-19T23:23:54.910Z,9.30
2019-05-19T23:26:25.340Z,9.20
2019-05-19T23:28:55.751Z,9.20
2019-05-19T23:31:26.163Z,9.20
2019-05-19T23:33:56.493Z,9.20
2019-05-19T23:36:26.946Z,9.20
2019-05-19T23:38:57.431Z,9.20
2019-05-19T23:41:27.954Z,9.20
2019-05-19T23:43:58.356Z,9.20
2019-05-19T23:46:28.794Z,9.20
2019-05-19T23:48:59.304Z,9.20
2019-05-19T23:51:29.642Z,9.10
2019-05-19T23:54:00.101Z,9.20
2019-05-19T23:56:30.573Z,9.10
2019-05-19T23:59:00.963Z,9.10
